createdAt,value
2018-03-30T00:02:05.569Z,26.23
2018-03-30T00:04:33.188Z,28.57
2018-03-30T00:07:09.636Z,26.70
2018-03-30T00:09:49.133Z,22.73
2018-03-30T00:12:17.500Z,24.50
2018-03-30T00:14:45.860Z,23.30
2018-03-30T00:17:13.477Z,23.03
2018-03-30T00:19:41.075Z,27.70
2018-03-30T00:22:08.699Z,28.77
2018-03-30T00:24:36.297Z,31.63
2018-03-30T00:27:03.912Z,30.20
2018-03-30T00:29:31.504Z,35.47
2018-03-30T00:31:59.095Z,28.47
2018-03-30T00:34:27.479Z,26.27
2018-03-30T00:36:55.837Z,24.83
2018-03-30T00:39:23.465Z,30.10
2018-03-30T00:41:51.065Z,25.83
2018-03-30T00:44:19.424Z,28.07
2018-03-30T00:46:47.986Z,17.37
2018-03-30T00:49:15.567Z,15.67
2018-03-30T00:51:43.199Z,24.40
2018-03-30T00:54:10.785Z,24.70
2018-03-30T00:56:38.411Z,13.20
2018-03-30T00:59:06.004Z,20.10
2018-03-30T01:01:33.634Z,24.97
2018-03-30T01:04:01.231Z,30.03
2018-03-30T01:06:28.870Z,29.00
2018-03-30T01:08:56.465Z,24.73
2018-03-30T01:11:24.851Z,29.23
2018-03-30T01:13:52.470Z,25.60
2018-03-30T01:16:20.055Z,25.63
2018-03-30T01:18:47.670Z,22.23
2018-03-30T01:21:15.272Z,23.70
2018-03-30T01:23:42.892Z,22.03
2018-03-30T01:26:10.497Z,26.47
2018-03-30T01:28:38.112Z,20.73
2018-03-30T01:31:05.711Z,23.07
2018-03-30T01:33:33.328Z,24.10
2018-03-30T01:36:00.926Z,23.57
2018-03-30T01:38:28.552Z,22.80
2018-03-30T01:40:56.140Z,25.33
2018-03-30T01:43:23.748Z,28.00
2018-03-30T01:45:51.348Z,27.27
2018-03-30T01:48:18.976Z,15.60
2018-03-30T01:50:47.338Z,24.00
2018-03-30T01:53:14.932Z,28.43
2018-03-30T01:55:42.548Z,22.47
2018-03-30T01:58:10.142Z,24.70
2018-03-30T02:00:38.548Z,24.73
2018-03-30T02:03:06.141Z,32.40
2018-03-30T02:05:33.733Z,28.20
2018-03-30T02:08:02.120Z,26.53
2018-03-30T02:10:30.476Z,24.07
2018-03-30T02:12:58.866Z,26.63
2018-03-30T02:15:27.253Z,33.60
2018-03-30T02:17:55.644Z,30.90
2018-03-30T02:20:24.004Z,26.53
2018-03-30T02:22:52.364Z,26.90
2018-03-30T02:25:21.489Z,29.53
2018-03-30T02:27:49.843Z,26.80
2018-03-30T02:30:18.233Z,25.93
2018-03-30T02:32:46.596Z,26.97
2018-03-30T02:35:14.960Z,27.37
2018-03-30T02:37:42.604Z,25.77
2018-03-30T02:40:10.198Z,23.30
2018-03-30T02:42:37.828Z,26.53
2018-03-30T02:45:05.433Z,31.07
2018-03-30T02:47:33.030Z,25.60
2018-03-30T02:50:00.656Z,28.30
2018-03-30T02:52:29.030Z,23.87
2018-03-30T02:54:56.648Z,22.47
2018-03-30T02:57:24.233Z,26.97
2018-03-30T02:59:53.371Z,24.87
2018-03-30T03:02:21.725Z,30.30
2018-03-30T03:04:49.351Z,26.63
2018-03-30T03:07:16.939Z,30.70
2018-03-30T03:09:44.533Z,28.60
2018-03-30T03:12:12.911Z,30.00
2018-03-30T03:14:41.272Z,33.90
2018-03-30T03:17:09.668Z,32.37
2018-03-30T03:19:38.038Z,31.90
2018-03-30T03:22:06.395Z,31.00
2018-03-30T03:24:34.024Z,27.03
2018-03-30T03:27:01.617Z,30.70
2018-03-30T03:29:29.987Z,30.57
2018-03-30T03:31:57.605Z,26.50
2018-03-30T03:34:25.295Z,27.90
2018-03-30T03:36:52.924Z,30.80
2018-03-30T03:39:20.508Z,19.30
2018-03-30T03:41:48.136Z,32.30
2018-03-30T03:44:15.738Z,24.13
2018-03-30T03:46:43.332Z,28.77
2018-03-30T03:49:10.961Z,27.73
2018-03-30T03:51:38.549Z,29.00
2018-03-30T03:54:06.144Z,28.63
2018-03-30T03:56:33.766Z,27.47
2018-03-30T03:59:01.363Z,29.87
2018-03-30T04:01:28.957Z,26.80
2018-03-30T04:03:56.568Z,26.43
2018-03-30T04:06:24.926Z,27.43
2018-03-30T04:08:53.316Z,24.00
2018-03-30T04:11:21.679Z,21.70
2018-03-30T04:13:50.065Z,21.73
2018-03-30T04:16:17.656Z,22.77
2018-03-30T04:18:45.271Z,26.33
2018-03-30T04:21:12.865Z,20.90
2018-03-30T04:23:41.264Z,24.20
2018-03-30T04:26:08.877Z,24.13
2018-03-30T04:28:36.477Z,28.57
2018-03-30T04:31:04.100Z,24.00
2018-03-30T04:33:31.694Z,23.13
2018-03-30T04:35:59.319Z,24.50
2018-03-30T04:38:27.671Z,24.50
2018-03-30T04:40:55.300Z,27.27
2018-03-30T04:43:22.892Z,20.73
2018-03-30T04:45:50.492Z,26.80
2018-03-30T04:48:18.884Z,23.37
2018-03-30T04:50:47.242Z,20.23
2018-03-30T04:53:14.868Z,19.87
2018-03-30T04:55:42.455Z,25.97
2018-03-30T04:58:10.041Z,27.97
2018-03-30T05:00:38.434Z,32.43
2018-03-30T05:03:06.023Z,25.50
2018-03-30T05:05:33.618Z,25.80
2018-03-30T05:08:02.008Z,29.57
2018-03-30T05:10:29.605Z,24.43
2018-03-30T05:12:57.226Z,23.30
2018-03-30T05:15:24.957Z,23.90
2018-03-30T05:17:52.543Z,23.23
2018-03-30T05:20:20.927Z,26.23
2018-03-30T05:22:49.298Z,26.53
2018-03-30T05:25:16.892Z,25.10
2018-03-30T05:27:44.532Z,24.50
2018-03-30T05:30:12.883Z,26.43
2018-03-30T05:32:40.507Z,24.50
2018-03-30T05:35:08.097Z,23.00
2018-03-30T05:37:35.723Z,19.93
2018-03-30T05:40:03.334Z,26.97
2018-03-30T05:42:30.933Z,24.77
2018-03-30T05:44:59.317Z,25.43
2018-03-30T05:47:28.342Z,27.17
2018-03-30T05:49:55.965Z,23.00
2018-03-30T05:52:24.323Z,26.83
2018-03-30T05:54:51.948Z,25.27
2018-03-30T05:57:19.538Z,22.47
2018-03-30T05:59:47.127Z,31.97
2018-03-30T06:02:15.512Z,28.87
2018-03-30T06:04:43.116Z,26.00
2018-03-30T06:07:10.708Z,23.80
2018-03-30T06:09:38.326Z,29.33
2018-03-30T06:12:05.932Z,31.03
2018-03-30T06:14:34.313Z,28.77
2018-03-30T06:17:02.696Z,21.47
2018-03-30T06:19:31.076Z,25.80
2018-03-30T06:21:59.444Z,28.20
2018-03-30T06:24:27.164Z,27.90
2018-03-30T06:26:54.768Z,27.07
2018-03-30T06:29:23.172Z,27.13
2018-03-30T06:31:50.775Z,26.03
2018-03-30T06:34:18.365Z,26.43
2018-03-30T06:36:46.012Z,25.40
2018-03-30T06:39:13.652Z,21.87
2018-03-30T06:41:41.244Z,24.27
2018-03-30T06:44:08.882Z,19.70
2018-03-30T06:46:36.479Z,19.77
2018-03-30T06:49:04.832Z,21.80
2018-03-30T06:51:32.460Z,25.50
2018-03-30T06:54:00.064Z,23.63
2018-03-30T06:56:27.660Z,30.30
2018-03-30T06:58:55.280Z,18.50
2018-03-30T07:01:22.877Z,21.03
2018-03-30T07:03:50.508Z,23.00
2018-03-30T07:06:18.869Z,13.70
2018-03-30T07:08:46.470Z,19.67
2018-03-30T07:11:14.852Z,21.03
2018-03-30T07:13:42.440Z,16.27
2018-03-30T07:16:10.078Z,14.73
2018-03-30T07:18:37.677Z,19.17
2018-03-30T07:21:05.276Z,18.40
2018-03-30T07:23:32.896Z,20.07
2018-03-30T07:26:00.496Z,16.93
2018-03-30T07:28:28.216Z,14.77
2018-03-30T07:30:55.811Z,20.17
2018-03-30T07:33:23.400Z,19.47
2018-03-30T07:35:51.032Z,15.17
2018-03-30T07:38:18.788Z,20.70
2018-03-30T07:40:46.372Z,18.77
2018-03-30T07:43:14.770Z,16.60
2018-03-30T07:45:42.509Z,23.37
2018-03-30T07:48:10.112Z,17.47
2018-03-30T07:50:37.743Z,21.80
2018-03-30T07:53:06.109Z,21.13
2018-03-30T07:55:33.695Z,18.07
2018-03-30T07:58:01.424Z,12.60
2018-03-30T08:00:29.019Z,18.90
2018-03-30T08:02:56.616Z,16.80
2018-03-30T08:05:24.236Z,16.17
2018-03-30T08:07:51.825Z,12.77
2018-03-30T08:10:19.460Z,18.90
2018-03-30T08:12:47.056Z,19.60
2018-03-30T08:15:14.645Z,18.17
2018-03-30T08:17:42.264Z,14.83
2018-03-30T08:20:09.864Z,19.00
2018-03-30T08:22:37.496Z,13.97
2018-03-30T08:25:05.156Z,18.63
2018-03-30T08:27:32.781Z,20.80
2018-03-30T08:30:01.137Z,18.50
2018-03-30T08:32:28.736Z,15.73
2018-03-30T08:34:56.638Z,15.33
2018-03-30T08:37:24.411Z,13.30
2018-03-30T08:39:52.192Z,15.80
2018-03-30T08:42:20.550Z,13.60
2018-03-30T08:44:48.131Z,17.53
2018-03-30T08:47:17.258Z,12.40
2018-03-30T08:49:44.846Z,13.17
2018-03-30T08:52:12.468Z,13.50
2018-03-30T08:54:40.829Z,14.10
2018-03-30T08:57:08.435Z,14.50
2018-03-30T08:59:36.060Z,14.70
2018-03-30T09:02:04.416Z,13.60
2018-03-30T09:04:32.004Z,11.33
2018-03-30T09:07:00.396Z,12.37
2018-03-30T09:09:28.008Z,11.20
2018-03-30T09:11:55.624Z,9.43
2018-03-30T09:14:23.562Z,14.10
2018-03-30T09:16:51.926Z,13.87
2018-03-30T09:19:19.543Z,10.80
2018-03-30T09:21:47.142Z,15.60
2018-03-30T09:24:14.724Z,13.60
2018-03-30T09:26:43.108Z,13.80
2018-03-30T09:29:11.467Z,13.37
2018-03-30T09:31:39.067Z,13.80
2018-03-30T09:34:06.756Z,18.73
2018-03-30T09:36:34.340Z,13.20
2018-03-30T09:39:01.944Z,16.23
2018-03-30T09:41:29.616Z,17.73
2018-03-30T09:43:58.007Z,18.40
2018-03-30T09:46:25.619Z,14.87
2018-03-30T09:48:54.032Z,16.43
2018-03-30T09:51:21.644Z,16.47
2018-03-30T09:53:50.008Z,17.03
2018-03-30T09:56:17.636Z,12.70
2018-03-30T09:58:45.226Z,14.27
2018-03-30T10:01:16.795Z,13.30
2018-03-30T10:03:48.260Z,17.20
2018-03-30T10:06:15.884Z,13.07
2018-03-30T10:08:43.503Z,19.07
2018-03-30T10:11:11.863Z,16.33
2018-03-30T10:13:39.499Z,17.77
2018-03-30T10:16:07.096Z,19.10
2018-03-30T10:18:35.455Z,12.10
2018-03-30T10:21:03.114Z,16.27
2018-03-30T10:23:30.712Z,15.37
2018-03-30T10:25:58.301Z,15.80
2018-03-30T10:28:26.049Z,16.57
2018-03-30T10:30:53.644Z,20.93
2018-03-30T10:33:21.265Z,16.20
2018-03-30T10:35:50.552Z,19.10
2018-03-30T10:38:18.948Z,16.43
2018-03-30T10:40:46.544Z,24.63
2018-03-30T10:43:14.139Z,16.23
2018-03-30T10:45:42.529Z,17.67
2018-03-30T10:48:10.894Z,20.40
2018-03-30T10:50:39.452Z,17.87
2018-03-30T10:53:07.215Z,20.07
2018-03-30T10:55:34.815Z,17.40
2018-03-30T10:58:03.220Z,18.37
2018-03-30T11:00:30.816Z,18.83
2018-03-30T11:02:58.417Z,20.53
2018-03-30T11:05:26.056Z,20.93
2018-03-30T11:07:53.656Z,20.40
2018-03-30T11:10:21.249Z,18.00
2018-03-30T11:12:48.874Z,20.57
2018-03-30T11:15:16.468Z,22.33
2018-03-30T11:17:44.092Z,21.27
2018-03-30T11:20:11.695Z,22.23
2018-03-30T11:22:39.287Z,20.90
2018-03-30T11:25:07.695Z,21.93
2018-03-30T11:27:35.288Z,21.77
2018-03-30T11:30:02.892Z,17.93
2018-03-30T11:32:31.296Z,20.50
2018-03-30T11:34:58.894Z,20.33
2018-03-30T11:37:26.489Z,22.53
2018-03-30T11:39:54.876Z,25.90
2018-03-30T11:42:23.232Z,22.17
2018-03-30T11:44:50.868Z,23.40
2018-03-30T11:47:18.530Z,20.27
2018-03-30T11:49:46.155Z,17.03
2018-03-30T11:52:13.845Z,17.50
2018-03-30T11:54:41.440Z,22.87
2018-03-30T11:57:09.070Z,21.83
2018-03-30T11:59:36.672Z,24.67
2018-03-30T12:02:05.031Z,21.20
2018-03-30T12:04:32.653Z,22.50
2018-03-30T12:07:00.255Z,26.90
2018-03-30T12:09:27.892Z,22.47
2018-03-30T12:11:55.488Z,22.90
2018-03-30T12:14:23.088Z,18.10
2018-03-30T12:16:50.716Z,23.03
2018-03-30T12:19:19.088Z,18.83
2018-03-30T12:21:46.689Z,23.50
2018-03-30T12:24:14.316Z,17.80
2018-03-30T12:26:42.676Z,19.33
2018-03-30T12:29:10.312Z,18.87
2018-03-30T12:31:37.908Z,21.60
2018-03-30T12:34:05.504Z,33.00
2018-03-30T12:36:33.119Z,19.30
2018-03-30T12:39:00.716Z,20.83
2018-03-30T12:41:28.572Z,15.83
2018-03-30T12:43:57.020Z,20.20
2018-03-30T12:46:24.624Z,22.03
2018-03-30T12:48:52.244Z,16.87
2018-03-30T12:51:19.859Z,19.70
2018-03-30T12:53:47.530Z,17.93
2018-03-30T12:56:15.130Z,19.50
2018-03-30T12:58:42.728Z,19.17
2018-03-30T13:01:10.361Z,22.57
2018-03-30T13:03:37.973Z,19.87
2018-03-30T13:06:05.625Z,20.07
2018-03-30T13:08:33.993Z,22.93
2018-03-30T13:11:01.600Z,21.50
2018-03-30T13:13:29.241Z,24.63
2018-03-30T13:15:56.845Z,23.10
2018-03-30T13:18:24.440Z,22.70
2018-03-30T13:20:52.074Z,21.43
2018-03-30T13:23:20.441Z,25.00
2018-03-30T13:25:49.568Z,16.90
2018-03-30T13:28:17.197Z,21.60
2018-03-30T13:30:44.828Z,19.37
2018-03-30T13:33:12.430Z,21.13
2018-03-30T13:35:40.032Z,20.00
2018-03-30T13:38:07.652Z,20.27
2018-03-30T13:40:35.295Z,22.40
2018-03-30T13:43:02.928Z,18.57
2018-03-30T13:45:30.515Z,16.87
2018-03-30T13:47:58.112Z,14.10
2018-03-30T13:50:30.020Z,14.30
2018-03-30T13:56:02.330Z,13.43
2018-03-30T13:58:40.599Z,20.00
2018-03-30T14:01:11.895Z,18.50
2018-03-30T14:04:05.167Z,20.67
2018-03-30T14:06:47.402Z,20.00
2018-03-30T14:12:14.132Z,20.70
2018-03-30T14:14:42.498Z,23.33
2018-03-30T14:17:11.592Z,21.00
2018-03-30T14:19:40.146Z,21.70
2018-03-30T14:22:08.484Z,23.43
2018-03-30T14:24:37.645Z,19.67
2018-03-30T14:27:10.957Z,15.90
2018-03-30T14:29:40.176Z,22.30
2018-03-30T14:32:07.779Z,23.87
2018-03-30T14:37:48.553Z,20.17
2018-03-30T14:40:20.367Z,18.60
2018-03-30T14:42:48.890Z,18.07
2018-03-30T14:48:15.633Z,18.73
2018-03-30T14:50:48.116Z,18.60
2018-03-30T14:53:16.632Z,16.27
2018-03-30T14:55:50.207Z,19.23
2018-03-30T15:01:31.191Z,17.47
2018-03-30T15:04:25.275Z,19.83
2018-03-30T15:06:54.420Z,12.80
2018-03-30T15:09:33.984Z,15.70
2018-03-30T15:12:17.328Z,12.10
2018-03-30T15:14:55.616Z,19.57
2018-03-30T15:17:38.234Z,12.47
2018-03-30T15:20:26.414Z,8.60
2018-03-30T15:23:17.657Z,16.00
2018-03-30T15:25:47.030Z,18.00
2018-03-30T15:28:15.572Z,14.93
2018-03-30T15:33:42.820Z,14.10
2018-03-30T15:36:42.128Z,12.17
2018-03-30T15:39:09.720Z,12.57
2018-03-30T15:41:38.115Z,15.17
2018-03-30T15:44:05.720Z,16.97
2018-03-30T15:46:36.128Z,16.40
2018-03-30T15:49:03.748Z,11.57
2018-03-30T15:51:33.024Z,12.93
2018-03-30T15:54:00.176Z,14.40
2018-03-30T15:56:27.777Z,11.30
2018-03-30T15:58:55.670Z,14.23
2018-03-30T16:01:23.392Z,16.83
2018-03-30T16:03:51.911Z,16.80
2018-03-30T16:06:19.722Z,14.33
2018-03-30T16:08:48.106Z,13.13
2018-03-30T16:11:18.183Z,13.47
2018-03-30T16:13:45.780Z,12.97
2018-03-30T16:16:13.408Z,12.77
2018-03-30T16:18:52.976Z,10.20
2018-03-30T16:21:20.121Z,11.37
2018-03-30T16:23:47.992Z,9.53
2018-03-30T16:26:15.108Z,14.30
2018-03-30T16:28:42.240Z,14.87
2018-03-30T16:31:09.337Z,17.37
2018-03-30T16:33:36.464Z,14.63
2018-03-30T16:36:03.564Z,13.30
2018-03-30T16:38:31.460Z,12.87
2018-03-30T16:40:58.576Z,12.57
2018-03-30T16:43:26.440Z,12.57
2018-03-30T16:45:54.346Z,15.53
2018-03-30T16:48:21.461Z,13.13
2018-03-30T16:50:49.353Z,13.17
2018-03-30T16:53:16.500Z,15.97
2018-03-30T16:55:43.594Z,13.83
2018-03-30T16:58:10.733Z,14.30
2018-03-30T17:00:37.833Z,13.97
2018-03-30T17:03:04.960Z,14.37
2018-03-30T17:05:32.088Z,15.70
2018-03-30T17:07:59.189Z,16.80
2018-03-30T17:10:26.321Z,13.43
2018-03-30T17:12:54.179Z,18.10
2018-03-30T17:15:22.122Z,8.43
2018-03-30T17:17:49.256Z,13.43
2018-03-30T17:20:16.364Z,15.50
2018-03-30T17:22:43.496Z,15.83
2018-03-30T17:25:11.364Z,14.73
2018-03-30T17:27:39.227Z,13.33
2018-03-30T17:30:07.125Z,12.53
2018-03-30T17:32:34.223Z,11.80
2018-03-30T17:35:01.368Z,18.20
2018-03-30T17:37:28.487Z,10.57
2018-03-30T17:39:55.580Z,12.37
2018-03-30T17:42:22.720Z,13.50
2018-03-30T17:44:49.816Z,11.57
2018-03-30T17:47:16.916Z,10.20
2018-03-30T17:49:44.047Z,12.97
2018-03-30T17:52:11.155Z,12.90
2018-03-30T17:54:41.098Z,17.50
2018-03-30T17:57:11.328Z,13.83
2018-03-30T17:59:38.785Z,19.17
2018-03-30T18:02:08.064Z,14.90
2018-03-30T18:04:37.273Z,16.83
2018-03-30T18:07:06.167Z,12.20
2018-03-30T18:09:35.830Z,11.80
2018-03-30T18:12:05.093Z,15.70
2018-03-30T18:14:34.063Z,12.60
2018-03-30T18:17:04.198Z,12.57
2018-03-30T18:19:31.471Z,10.67
2018-03-30T18:21:58.568Z,10.93
2018-03-30T18:24:25.695Z,10.30
2018-03-30T18:26:53.602Z,8.60
2018-03-30T18:29:20.724Z,11.27
2018-03-30T18:31:47.858Z,10.10
2018-03-30T18:34:15.746Z,8.53
2018-03-30T18:36:42.849Z,10.20
2018-03-30T18:39:09.983Z,9.40
2018-03-30T18:41:37.086Z,8.80
2018-03-30T18:44:06.036Z,9.60
2018-03-30T18:46:33.902Z,7.87
2018-03-30T18:49:01.248Z,7.83
2018-03-30T18:51:28.535Z,9.77
2018-03-30T18:53:55.760Z,11.23
2018-03-30T18:56:23.120Z,9.30
2018-03-30T18:58:50.474Z,11.10
2018-03-30T19:01:17.830Z,11.20
2018-03-30T19:03:45.109Z,7.40
2018-03-30T19:06:13.139Z,10.60
2018-03-30T19:08:40.402Z,8.93
2018-03-30T19:11:07.756Z,9.70
2018-03-30T19:13:35.146Z,10.07
2018-03-30T19:16:03.052Z,9.93
2018-03-30T19:18:30.156Z,9.90
2018-03-30T19:20:58.034Z,10.40
2018-03-30T19:23:25.933Z,9.80
2018-03-30T19:25:53.033Z,9.73
2018-03-30T19:28:20.133Z,9.10
2018-03-30T19:30:47.519Z,7.60
2018-03-30T19:33:14.801Z,11.80
2018-03-30T19:35:42.844Z,11.03
2018-03-30T19:38:11.919Z,10.83
2018-03-30T19:40:41.831Z,9.60
2018-03-30T19:43:09.158Z,7.90
2018-03-30T19:45:36.558Z,11.03
2018-03-30T19:48:03.925Z,9.53
2018-03-30T19:50:31.845Z,11.43
2018-03-30T19:52:59.144Z,8.70
2018-03-30T19:55:26.498Z,8.80
2018-03-30T19:57:55.620Z,10.80
2018-03-30T20:00:23.055Z,10.50
2018-03-30T20:02:52.255Z,10.67
2018-03-30T20:05:21.526Z,10.63
2018-03-30T20:07:51.517Z,9.90
2018-03-30T20:10:20.445Z,9.93
2018-03-30T20:12:47.908Z,12.63
2018-03-30T20:15:15.157Z,11.80
2018-03-30T20:17:42.516Z,9.20
2018-03-30T20:20:09.878Z,11.90
2018-03-30T20:22:38.619Z,8.47
2018-03-30T20:25:06.122Z,9.50
2018-03-30T20:27:33.290Z,11.30
2018-03-30T20:30:00.396Z,10.03
2018-03-30T20:32:27.652Z,9.60
2018-03-30T20:34:55.669Z,11.07
2018-03-30T20:37:25.199Z,13.00
2018-03-30T20:39:52.696Z,10.27
2018-03-30T20:42:20.265Z,9.77
2018-03-30T20:44:48.268Z,11.90
2018-03-30T20:47:17.532Z,12.60
2018-03-30T20:49:45.896Z,10.53
2018-03-30T20:52:13.132Z,11.07
2018-03-30T20:54:40.230Z,11.80
2018-03-30T20:57:07.362Z,11.30
2018-03-30T20:59:34.459Z,10.13
2018-03-30T21:02:01.913Z,12.80
2018-03-30T21:04:29.018Z,10.47
2018-03-30T21:06:56.117Z,11.07
2018-03-30T21:09:23.256Z,14.40
2018-03-30T21:11:51.116Z,11.80
2018-03-30T21:14:19.037Z,10.63
2018-03-30T21:16:46.131Z,9.47
2018-03-30T21:19:14.033Z,12.87
2018-03-30T21:21:41.127Z,10.40
2018-03-30T21:24:08.221Z,8.67
2018-03-30T21:26:35.350Z,11.50
2018-03-30T21:29:03.215Z,11.90
2018-03-30T21:31:31.071Z,11.37
2018-03-30T21:33:59.200Z,12.70
2018-03-30T21:36:26.878Z,10.73
2018-03-30T21:38:54.219Z,8.50
2018-03-30T21:41:23.206Z,12.43
2018-03-30T21:43:51.957Z,19.93
2018-03-30T21:46:21.222Z,9.63
2018-03-30T21:48:50.262Z,9.73
2018-03-30T21:51:17.512Z,12.00
2018-03-30T21:53:44.635Z,11.47
2018-03-30T21:56:12.084Z,10.83
2018-03-30T21:58:39.426Z,11.37
2018-03-30T22:01:06.563Z,10.93
2018-03-30T22:03:33.671Z,10.90
2018-03-30T22:08:32.072Z,14.47
2018-03-30T22:10:59.176Z,11.53
2018-03-30T22:13:26.280Z,13.60
2018-03-30T22:15:53.411Z,12.77
2018-03-30T22:18:21.276Z,11.50
2018-03-30T22:20:49.441Z,15.43
2018-03-30T22:23:17.585Z,9.67
2018-03-30T22:25:44.840Z,12.30
2018-03-30T22:28:13.010Z,12.97
2018-03-30T22:30:40.358Z,12.50
2018-03-30T22:33:07.747Z,14.07
2018-03-30T22:35:35.885Z,11.30
2018-03-30T22:38:03.242Z,9.10
2018-03-30T22:40:30.614Z,10.17
2018-03-30T22:42:57.894Z,9.50
2018-03-30T22:45:25.205Z,13.20
2018-03-30T22:47:52.556Z,10.77
2018-03-30T22:50:19.861Z,13.00
2018-03-30T22:52:47.179Z,9.60
2018-03-30T22:55:14.522Z,13.13
2018-03-30T22:57:41.874Z,8.90
2018-03-30T23:00:09.236Z,11.20
2018-03-30T23:02:36.593Z,10.30
2018-03-30T23:05:03.944Z,11.97
2018-03-30T23:07:31.333Z,11.30
2018-03-30T23:09:58.675Z,11.30
2018-03-30T23:12:26.002Z,14.20
2018-03-30T23:14:53.362Z,13.43
2018-03-30T23:17:20.714Z,13.23
2018-03-30T23:19:48.068Z,13.70
2018-03-30T23:22:15.427Z,15.07
2018-03-30T23:24:42.789Z,16.53
2018-03-30T23:27:10.133Z,13.00
2018-03-30T23:29:37.492Z,7.93
2018-03-30T23:32:04.844Z,12.37
2018-03-30T23:34:32.200Z,11.43
2018-03-30T23:36:59.553Z,12.57
2018-03-30T23:39:26.907Z,11.60
2018-03-30T23:41:54.264Z,14.90
2018-03-30T23:44:21.615Z,12.70
2018-03-30T23:46:48.968Z,13.47
2018-03-30T23:49:16.221Z,15.40
2018-03-30T23:51:43.582Z,12.63
2018-03-30T23:54:10.835Z,13.37
2018-03-30T23:56:38.112Z,13.10
2018-03-30T23:59:06.254Z,10.83
